TimeEDT,TemperatureF,Dew PointF,Humidity,Sea Level PressureIn,VisibilityMPH,Wind Direction,Wind SpeedMPH,Gust SpeedMPH,PrecipitationIn,Events,Conditions,WindDirDegrees,DateUTC
12:53 AM,55.0,53.1,93,30.21,10.0,Calm,Calm,-,N/A,,Clear,0,2011-10-05 04:53:00
1:53 AM,54.0,53.1,97,30.22,9.0,Calm,Calm,-,N/A,,Clear,0,2011-10-05 05:53:00
2:53 AM,53.1,52.0,96,30.21,5.0,Calm,Calm,-,N/A,,Clear,0,2011-10-05 06:53:00
3:53 AM,52.0,51.1,97,30.21,9.0,Calm,Calm,-,N/A,,Clear,0,2011-10-05 07:53:00
4:53 AM,52.0,50.0,93,30.21,10.0,Calm,Calm,-,N/A,,Clear,0,2011-10-05 08:53:00
5:53 AM,51.1,48.9,92,30.22,10.0,Calm,Calm,-,N/A,,Clear,0,2011-10-05 09:53:00
7:29 AM,50.0,48.2,94,30.25,2.5,Calm,Calm,-,N/A,,Clear,0,2011-10-05 11:29:00
7:37 AM,50.0,48.2,94,30.25,9.0,Calm,Calm,-,N/A,,Clear,0,2011-10-05 11:37:00
7:53 AM,50.0,48.9,96,30.25,10.0,Calm,Calm,-,N/A,,Clear,0,2011-10-05 11:53:00
8:53 AM,59.0,54.0,83,30.27,10.0,Calm,Calm,-,N/A,,Clear,0,2011-10-05 12:53:00
9:53 AM,66.0,54.0,65,30.27,10.0,NE,3.5,-,N/A,,Clear,50,2011-10-05 13:53:00
10:53 AM,71.1,53.1,53,30.27,10.0,East,4.6,-,N/A,,Clear,80,2011-10-05 14:53:00
11:53 AM,73.0,53.1,49,30.26,10.0,ESE,4.6,-,N/A,,Clear,120,2011-10-05 15:53:00
12:53 PM,75.0,52.0,44,30.24,10.0,Variable,3.5,-,N/A,,Clear,0,2011-10-05 16:53:00
1:53 PM,77.0,52.0,42,30.21,10.0,North,8.1,-,N/A,,Clear,360,2011-10-05 17:53:00
2:53 PM,79.0,52.0,39,30.19,10.0,NE,6.9,-,N/A,,Clear,40,2011-10-05 18:53:00
3:53 PM,78.1,51.1,39,30.17,10.0,Variable,3.5,-,N/A,,Clear,0,2011-10-05 19:53:00
4:53 PM,79.0,51.1,38,30.17,10.0,NNE,4.6,-,N/A,,Clear,30,2011-10-05 20:53:00
7:53 PM,64.9,55.0,70,30.18,10.0,Calm,Calm,-,N/A,,Clear,0,2011-10-05 23:53:00
8:53 PM,62.1,55.0,78,30.19,10.0,Calm,Calm,-,N/A,,Clear,0,2011-10-06 00:53:00
9:53 PM,59.0,55.0,87,30.20,10.0,Calm,Calm,-,N/A,,Clear,0,2011-10-06 01:53:00
10:53 PM,57.9,55.0,90,30.21,10.0,Calm,Calm,-,N/A,,Clear,0,2011-10-06 02:53:00
11:53 PM,57.0,54.0,89,30.21,7.0,Calm,Calm,-,N/A,,Clear,0,2011-10-06 03:53:00